sensor_id;sensor_type;location;lat;lon;timestamp;temperature;humidity
1880;DHT22;49285;49.002;8.390;2022-07-22T00:00:26;25.60;94.50
1880;DHT22;49285;49.002;8.390;2022-07-22T00:02:51;25.50;94.70
1880;DHT22;49285;49.002;8.390;2022-07-22T00:05:17;25.50;94.80
1880;DHT22;49285;49.002;8.390;2022-07-22T00:07:42;25.50;94.90
1880;DHT22;49285;49.002;8.390;2022-07-22T00:10:09;25.50;95.10
1880;DHT22;49285;49.002;8.390;2022-07-22T00:12:37;25.50;95.30
1880;DHT22;49285;49.002;8.390;2022-07-22T00:15:04;25.40;95.40
1880;DHT22;49285;49.002;8.390;2022-07-22T00:17:30;25.40;95.70
1880;DHT22;49285;49.002;8.390;2022-07-22T00:19:56;25.30;95.90
1880;DHT22;49285;49.002;8.390;2022-07-22T00:22:21;25.30;96.20
1880;DHT22;49285;49.002;8.390;2022-07-22T00:24:47;25.20;96.50
1880;DHT22;49285;49.002;8.390;2022-07-22T00:27:12;25.20;96.70
1880;DHT22;49285;49.002;8.390;2022-07-22T00:29:38;25.10;97.10
1880;DHT22;49285;49.002;8.390;2022-07-22T00:32:04;25.00;97.20
1880;DHT22;49285;49.002;8.390;2022-07-22T00:34:29;25.00;97.60
1880;DHT22;49285;49.002;8.390;2022-07-22T00:36:55;25.00;98.10
1880;DHT22;49285;49.002;8.390;2022-07-22T00:39:21;24.90;98.40
1880;DHT22;49285;49.002;8.390;2022-07-22T00:41:47;24.90;98.90
1880;DHT22;49285;49.002;8.390;2022-07-22T00:44:13;24.80;99.20
1880;DHT22;49285;49.002;8.390;2022-07-22T00:46:39;24.80;99.60
1880;DHT22;49285;49.002;8.390;2022-07-22T00:49:06;24.70;99.90
1880;DHT22;49285;49.002;8.390;2022-07-22T00:51:32;24.60;99.90
1880;DHT22;49285;49.002;8.390;2022-07-22T00:53:59;24.60;99.90
1880;DHT22;49285;49.002;8.390;2022-07-22T00:56:25;24.60;99.90
1880;DHT22;49285;49.002;8.390;2022-07-22T00:58:54;24.50;99.90
1880;DHT22;49285;49.002;8.390;2022-07-22T01:01:20;24.50;99.90
1880;DHT22;49285;49.002;8.390;2022-07-22T01:03:46;24.50;99.90
1880;DHT22;49285;49.002;8.390;2022-07-22T01:06:11;24.40;99.90
1880;DHT22;49285;49.002;8.390;2022-07-22T01:08:38;24.40;99.90
1880;DHT22;49285;49.002;8.390;2022-07-22T01:11:16;24.40;99.90
1880;DHT22;49285;49.002;8.390;2022-07-22T01:13:43;24.30;99.90
1880;DHT22;49285;49.002;8.390;2022-07-22T01:16:10;24.30;99.90
1880;DHT22;49285;49.002;8.390;2022-07-22T01:18:37;24.30;99.90
1880;DHT22;49285;49.002;8.390;2022-07-22T01:21:07;24.20;99.90
1880;DHT22;49285;49.002;8.390;2022-07-22T01:23:34;24.20;99.90
1880;DHT22;49285;49.002;8.390;2022-07-22T01:26:00;24.20;99.90
1880;DHT22;49285;49.002;8.390;2022-07-22T01:28:26;24.10;99.90
1880;DHT22;49285;49.002;8.390;2022-07-22T01:30:52;24.10;99.90
1880;DHT22;49285;49.002;8.390;2022-07-22T01:33:19;24.10;99.90
1880;DHT22;49285;49.002;8.390;2022-07-22T01:35:44;24.00;99.90
1880;DHT22;49285;49.002;8.390;2022-07-22T01:38:11;24.00;99.90
1880;DHT22;49285;49.002;8.390;2022-07-22T01:40:38;24.00;99.90
1880;DHT22;49285;49.002;8.390;2022-07-22T01:43:03;24.00;99.90
1880;DHT22;49285;49.002;8.390;2022-07-22T01:45:29;24.00;99.90
1880;DHT22;49285;49.002;8.390;2022-07-22T01:47:54;24.00;99.90
1880;DHT22;49285;49.002;8.390;2022-07-22T01:50:20;24.00;99.90
1880;DHT22;49285;49.002;8.390;2022-07-22T01:52:46;23.90;99.90
1880;DHT22;49285;49.002;8.390;2022-07-22T01:55:11;23.90;99.90
1880;DHT22;49285;49.002;8.390;2022-07-22T01:57:38;23.80;99.90
1880;DHT22;49285;49.002;8.390;2022-07-22T02:00:08;23.80;99.90
1880;DHT22;49285;49.002;8.390;2022-07-22T02:02:34;23.80;99.90
1880;DHT22;49285;49.002;8.390;2022-07-22T02:05:02;23.70;99.90
1880;DHT22;49285;49.002;8.390;2022-07-22T02:07:28;23.70;99.90
1880;DHT22;49285;49.002;8.390;2022-07-22T02:09:53;23.60;99.90
1880;DHT22;49285;49.002;8.390;2022-07-22T02:12:19;23.60;99.90
1880;DHT22;49285;49.002;8.390;2022-07-22T02:14:45;23.60;99.90
1880;DHT22;49285;49.002;8.390;2022-07-22T02:17:13;23.60;99.90
1880;DHT22;49285;49.002;8.390;2022-07-22T02:19:39;23.60;99.90
1880;DHT22;49285;49.002;8.390;2022-07-22T02:22:06;23.50;99.90
1880;DHT22;49285;49.002;8.390;2022-07-22T02:24:32;23.50;99.90
1880;DHT22;49285;49.002;8.390;2022-07-22T02:26:58;23.50;99.90
1880;DHT22;49285;49.002;8.390;2022-07-22T02:29:23;23.40;99.90
1880;DHT22;49285;49.002;8.390;2022-07-22T02:31:49;23.40;99.90
1880;DHT22;49285;49.002;8.390;2022-07-22T02:34:15;23.30;99.90
1880;DHT22;49285;49.002;8.390;2022-07-22T02:36:40;23.30;99.90
1880;DHT22;49285;49.002;8.390;2022-07-22T02:39:06;23.30;99.90
1880;DHT22;49285;49.002;8.390;2022-07-22T02:41:32;23.20;99.90
1880;DHT22;49285;49.002;8.390;2022-07-22T02:43:58;23.20;99.90
1880;DHT22;49285;49.002;8.390;2022-07-22T02:46:25;23.20;99.90
1880;DHT22;49285;49.002;8.390;2022-07-22T02:48:51;23.20;99.90
1880;DHT22;49285;49.002;8.390;2022-07-22T02:51:16;23.20;99.90
1880;DHT22;49285;49.002;8.390;2022-07-22T02:53:42;23.20;99.90
1880;DHT22;49285;49.002;8.390;2022-07-22T02:56:08;23.20;99.90
1880;DHT22;49285;49.002;8.390;2022-07-22T02:58:34;23.20;99.90
1880;DHT22;49285;49.002;8.390;2022-07-22T03:01:00;23.20;99.90
1880;DHT22;49285;49.002;8.390;2022-07-22T03:03:25;23.10;99.90
1880;DHT22;49285;49.002;8.390;2022-07-22T03:05:51;23.20;99.90
1880;DHT22;49285;49.002;8.390;2022-07-22T03:08:17;23.20;99.90
1880;DHT22;49285;49.002;8.390;2022-07-22T03:10:42;23.20;99.90
1880;DHT22;49285;49.002;8.390;2022-07-22T03:13:08;23.10;99.90
1880;DHT22;49285;49.002;8.390;2022-07-22T03:15:34;23.10;99.90
1880;DHT22;49285;49.002;8.390;2022-07-22T03:17:59;23.10;99.90
1880;DHT22;49285;49.002;8.390;2022-07-22T03:20:25;23.10;99.90
1880;DHT22;49285;49.002;8.390;2022-07-22T03:22:50;23.00;99.90
1880;DHT22;49285;49.002;8.390;2022-07-22T03:25:16;23.00;99.90
1880;DHT22;49285;49.002;8.390;2022-07-22T03:27:42;23.00;99.90
1880;DHT22;49285;49.002;8.390;2022-07-22T03:30:08;23.00;99.90
1880;DHT22;49285;49.002;8.390;2022-07-22T03:32:33;23.00;99.90
1880;DHT22;49285;49.002;8.390;2022-07-22T03:34:59;23.00;99.90
1880;DHT22;49285;49.002;8.390;2022-07-22T03:37:24;22.90;99.90
1880;DHT22;49285;49.002;8.390;2022-07-22T03:39:50;22.90;99.90
1880;DHT22;49285;49.002;8.390;2022-07-22T03:42:16;22.90;99.90
1880;DHT22;49285;49.002;8.390;2022-07-22T03:44:41;22.90;99.90
1880;DHT22;49285;49.002;8.390;2022-07-22T03:47:07;22.80;99.90
1880;DHT22;49285;49.002;8.390;2022-07-22T03:49:32;22.80;99.90
1880;DHT22;49285;49.002;8.390;2022-07-22T03:51:58;22.80;99.90
1880;DHT22;49285;49.002;8.390;2022-07-22T03:54:23;22.80;99.90
1880;DHT22;49285;49.002;8.390;2022-07-22T03:56:49;22.70;99.90
1880;DHT22;49285;49.002;8.390;2022-07-22T03:59:16;22.70;99.90
1880;DHT22;49285;49.002;8.390;2022-07-22T04:01:41;22.70;99.90
1880;DHT22;49285;49.002;8.390;2022-07-22T04:04:08;22.70;99.90
1880;DHT22;49285;49.002;8.390;2022-07-22T04:06:33;22.70;99.90
1880;DHT22;49285;49.002;8.390;2022-07-22T04:08:59;22.70;99.90
1880;DHT22;49285;49.002;8.390;2022-07-22T04:11:26;22.70;99.90
1880;DHT22;49285;49.002;8.390;2022-07-22T04:13:52;22.70;99.90
1880;DHT22;49285;49.002;8.390;2022-07-22T04:16:17;22.60;99.90
1880;DHT22;49285;49.002;8.390;2022-07-22T04:18:43;22.60;99.90
1880;DHT22;49285;49.002;8.390;2022-07-22T04:21:09;22.60;99.90
1880;DHT22;49285;49.002;8.390;2022-07-22T04:23:34;22.60;99.90
1880;DHT22;49285;49.002;8.390;2022-07-22T04:26:00;22.50;99.90
1880;DHT22;49285;49.002;8.390;2022-07-22T04:28:25;22.50;99.90
1880;DHT22;49285;49.002;8.390;2022-07-22T04:30:51;22.50;99.90
1880;DHT22;49285;49.002;8.390;2022-07-22T04:33:17;22.50;99.90
1880;DHT22;49285;49.002;8.390;2022-07-22T04:35:42;22.50;99.90
1880;DHT22;49285;49.002;8.390;2022-07-22T04:38:09;22.40;99.90
1880;DHT22;49285;49.002;8.390;2022-07-22T04:40:34;22.40;99.90
1880;DHT22;49285;49.002;8.390;2022-07-22T04:43:00;22.40;99.90
1880;DHT22;49285;49.002;8.390;2022-07-22T04:45:25;22.40;99.90
1880;DHT22;49285;49.002;8.390;2022-07-22T04:47:51;22.50;99.90
1880;DHT22;49285;49.002;8.390;2022-07-22T04:50:17;22.50;99.90
1880;DHT22;49285;49.002;8.390;2022-07-22T04:52:42;22.50;99.90
1880;DHT22;49285;49.002;8.390;2022-07-22T04:55:08;22.40;99.90
1880;DHT22;49285;49.002;8.390;2022-07-22T04:57:34;22.40;99.90
1880;DHT22;49285;49.002;8.390;2022-07-22T04:59:59;22.40;99.90
1880;DHT22;49285;49.002;8.390;2022-07-22T05:02:25;22.40;99.90
1880;DHT22;49285;49.002;8.390;2022-07-22T05:04:51;22.40;99.90
1880;DHT22;49285;49.002;8.390;2022-07-22T05:07:17;22.40;99.90
1880;DHT22;49285;49.002;8.390;2022-07-22T05:09:42;22.30;99.90
1880;DHT22;49285;49.002;8.390;2022-07-22T05:12:08;22.40;99.90
1880;DHT22;49285;49.002;8.390;2022-07-22T05:14:34;22.40;99.90
1880;DHT22;49285;49.002;8.390;2022-07-22T05:17:00;22.40;99.90
1880;DHT22;49285;49.002;8.390;2022-07-22T05:19:25;22.30;99.90
1880;DHT22;49285;49.002;8.390;2022-07-22T05:21:51;22.40;99.90
1880;DHT22;49285;49.002;8.390;2022-07-22T05:24:17;22.40;99.90
1880;DHT22;49285;49.002;8.390;2022-07-22T05:26:42;22.40;99.90
1880;DHT22;49285;49.002;8.390;2022-07-22T05:29:08;22.40;99.90
1880;DHT22;49285;49.002;8.390;2022-07-22T05:31:34;22.40;99.90
1880;DHT22;49285;49.002;8.390;2022-07-22T05:33:59;22.40;99.90
1880;DHT22;49285;49.002;8.390;2022-07-22T05:36:25;22.30;99.90
1880;DHT22;49285;49.002;8.390;2022-07-22T05:38:51;22.40;99.90
1880;DHT22;49285;49.002;8.390;2022-07-22T05:41:16;22.30;99.90
1880;DHT22;49285;49.002;8.390;2022-07-22T05:43:42;22.30;99.90
1880;DHT22;49285;49.002;8.390;2022-07-22T05:46:08;22.30;99.90
1880;DHT22;49285;49.002;8.390;2022-07-22T05:48:34;22.40;99.90
1880;DHT22;49285;49.002;8.390;2022-07-22T05:50:59;22.50;99.90
1880;DHT22;49285;49.002;8.390;2022-07-22T05:53:25;22.40;99.90
1880;DHT22;49285;49.002;8.390;2022-07-22T05:55:51;22.40;99.90
1880;DHT22;49285;49.002;8.390;2022-07-22T05:58:17;22.40;99.90
1880;DHT22;49285;49.002;8.390;2022-07-22T06:00:42;22.40;99.90
1880;DHT22;49285;49.002;8.390;2022-07-22T06:03:08;22.40;99.90
1880;DHT22;49285;49.002;8.390;2022-07-22T06:05:34;22.50;99.90
1880;DHT22;49285;49.002;8.390;2022-07-22T06:08:03;22.60;99.90
1880;DHT22;49285;49.002;8.390;2022-07-22T06:10:28;22.60;99.90
1880;DHT22;49285;49.002;8.390;2022-07-22T06:12:54;22.60;99.90
1880;DHT22;49285;49.002;8.390;2022-07-22T06:15:19;22.70;99.90
1880;DHT22;49285;49.002;8.390;2022-07-22T06:17:45;22.70;99.90
1880;DHT22;49285;49.002;8.390;2022-07-22T06:20:11;22.70;99.90
1880;DHT22;49285;49.002;8.390;2022-07-22T06:22:39;22.80;99.90
1880;DHT22;49285;49.002;8.390;2022-07-22T06:25:05;22.80;99.90
1880;DHT22;49285;49.002;8.390;2022-07-22T06:27:31;22.90;99.90
1880;DHT22;49285;49.002;8.390;2022-07-22T06:29:56;22.90;99.90
1880;DHT22;49285;49.002;8.390;2022-07-22T06:32:22;22.90;99.90
1880;DHT22;49285;49.002;8.390;2022-07-22T06:34:47;22.90;99.90
1880;DHT22;49285;49.002;8.390;2022-07-22T06:37:13;22.90;99.90
1880;DHT22;49285;49.002;8.390;2022-07-22T06:39:39;22.90;99.90
1880;DHT22;49285;49.002;8.390;2022-07-22T06:42:08;22.90;99.90
1880;DHT22;49285;49.002;8.390;2022-07-22T06:44:33;22.90;99.90
1880;DHT22;49285;49.002;8.390;2022-07-22T06:46:59;22.90;99.90
1880;DHT22;49285;49.002;8.390;2022-07-22T06:49:24;23.00;99.90
1880;DHT22;49285;49.002;8.390;2022-07-22T06:51:50;23.00;99.90
1880;DHT22;49285;49.002;8.390;2022-07-22T06:54:16;23.00;99.90
1880;DHT22;49285;49.002;8.390;2022-07-22T06:56:41;23.00;99.90
1880;DHT22;49285;49.002;8.390;2022-07-22T06:59:07;23.00;99.90
1880;DHT22;49285;49.002;8.390;2022-07-22T07:01:33;23.00;99.90
1880;DHT22;49285;49.002;8.390;2022-07-22T07:04:02;23.10;99.90
1880;DHT22;49285;49.002;8.390;2022-07-22T07:06:27;23.10;99.90
1880;DHT22;49285;49.002;8.390;2022-07-22T07:08:53;23.10;99.90
1880;DHT22;49285;49.002;8.390;2022-07-22T07:11:19;23.20;99.90
1880;DHT22;49285;49.002;8.390;2022-07-22T07:13:44;23.20;99.90
1880;DHT22;49285;49.002;8.390;2022-07-22T07:16:10;23.20;99.90
1880;DHT22;49285;49.002;8.390;2022-07-22T07:18:36;23.30;99.90
1880;DHT22;49285;49.002;8.390;2022-07-22T07:21:03;23.30;99.90
1880;DHT22;49285;49.002;8.390;2022-07-22T07:23:29;23.40;99.90
1880;DHT22;49285;49.002;8.390;2022-07-22T07:25:55;23.50;99.90
1880;DHT22;49285;49.002;8.390;2022-07-22T07:28:21;23.50;99.90
1880;DHT22;49285;49.002;8.390;2022-07-22T07:30:47;23.50;99.90
1880;DHT22;49285;49.002;8.390;2022-07-22T07:33:13;23.60;99.90
1880;DHT22;49285;49.002;8.390;2022-07-22T07:35:39;23.60;99.90
1880;DHT22;49285;49.002;8.390;2022-07-22T07:38:05;23.60;99.90
1880;DHT22;49285;49.002;8.390;2022-07-22T07:40:30;23.70;99.90
1880;DHT22;49285;49.002;8.390;2022-07-22T07:42:56;23.80;99.90
1880;DHT22;49285;49.002;8.390;2022-07-22T07:45:21;23.80;99.90
1880;DHT22;49285;49.002;8.390;2022-07-22T07:47:47;23.80;99.90
1880;DHT22;49285;49.002;8.390;2022-07-22T07:50:13;23.90;99.90
1880;DHT22;49285;49.002;8.390;2022-07-22T07:52:44;23.90;99.90
1880;DHT22;49285;49.002;8.390;2022-07-22T07:55:12;24.00;99.90
1880;DHT22;49285;49.002;8.390;2022-07-22T07:57:38;24.10;99.90
1880;DHT22;49285;49.002;8.390;2022-07-22T08:00:07;24.10;99.90
1880;DHT22;49285;49.002;8.390;2022-07-22T08:02:33;24.20;99.90
1880;DHT22;49285;49.002;8.390;2022-07-22T08:04:59;24.30;99.90
1880;DHT22;49285;49.002;8.390;2022-07-22T08:07:25;24.30;99.90
1880;DHT22;49285;49.002;8.390;2022-07-22T08:09:51;24.30;99.90
1880;DHT22;49285;49.002;8.390;2022-07-22T08:12:17;24.40;99.90
1880;DHT22;49285;49.002;8.390;2022-07-22T08:14:42;24.50;99.90
1880;DHT22;49285;49.002;8.390;2022-07-22T08:17:08;24.50;99.90
1880;DHT22;49285;49.002;8.390;2022-07-22T08:19:34;24.60;99.90
1880;DHT22;49285;49.002;8.390;2022-07-22T08:22:02;24.70;99.90
1880;DHT22;49285;49.002;8.390;2022-07-22T08:24:28;24.70;99.90
1880;DHT22;49285;49.002;8.390;2022-07-22T08:26:54;24.70;99.90
1880;DHT22;49285;49.002;8.390;2022-07-22T08:29:19;24.80;99.90
1880;DHT22;49285;49.002;8.390;2022-07-22T08:31:45;24.80;99.90
1880;DHT22;49285;49.002;8.390;2022-07-22T08:34:11;24.80;99.90
1880;DHT22;49285;49.002;8.390;2022-07-22T08:36:37;24.90;99.90
1880;DHT22;49285;49.002;8.390;2022-07-22T08:39:03;25.00;99.90
1880;DHT22;49285;49.002;8.390;2022-07-22T08:41:35;25.00;99.90
1880;DHT22;49285;49.002;8.390;2022-07-22T08:44:06;25.10;99.90
1880;DHT22;49285;49.002;8.390;2022-07-22T08:46:32;25.20;99.90
1880;DHT22;49285;49.002;8.390;2022-07-22T08:49:01;25.20;99.90
1880;DHT22;49285;49.002;8.390;2022-07-22T08:51:28;25.30;99.90
1880;DHT22;49285;49.002;8.390;2022-07-22T08:53:56;25.40;99.90
1880;DHT22;49285;49.002;8.390;2022-07-22T08:56:22;25.40;99.90
1880;DHT22;49285;49.002;8.390;2022-07-22T08:58:48;25.50;99.90
1880;DHT22;49285;49.002;8.390;2022-07-22T09:01:15;25.50;99.90
1880;DHT22;49285;49.002;8.390;2022-07-22T09:03:53;25.60;99.90
1880;DHT22;49285;49.002;8.390;2022-07-22T09:06:22;25.70;99.90
1880;DHT22;49285;49.002;8.390;2022-07-22T09:11:21;25.70;99.90
1880;DHT22;49285;49.002;8.390;2022-07-22T09:13:48;25.80;99.90
1880;DHT22;49285;49.002;8.390;2022-07-22T09:16:14;25.80;99.90
1880;DHT22;49285;49.002;8.390;2022-07-22T09:18:49;25.90;99.90
1880;DHT22;49285;49.002;8.390;2022-07-22T09:21:15;26.00;99.90
1880;DHT22;49285;49.002;8.390;2022-07-22T09:23:41;26.00;99.90
1880;DHT22;49285;49.002;8.390;2022-07-22T09:26:08;26.10;99.90
1880;DHT22;49285;49.002;8.390;2022-07-22T09:28:33;26.10;99.90
1880;DHT22;49285;49.002;8.390;2022-07-22T09:30:59;26.20;99.90
1880;DHT22;49285;49.002;8.390;2022-07-22T09:33:25;26.30;99.90
1880;DHT22;49285;49.002;8.390;2022-07-22T09:35:52;26.30;99.90
1880;DHT22;49285;49.002;8.390;2022-07-22T09:38:29;26.40;99.90
1880;DHT22;49285;49.002;8.390;2022-07-22T09:41:03;26.40;99.90
1880;DHT22;49285;49.002;8.390;2022-07-22T09:43:35;26.50;99.90
1880;DHT22;49285;49.002;8.390;2022-07-22T09:46:00;26.50;99.90
1880;DHT22;49285;49.002;8.390;2022-07-22T09:48:26;26.60;99.90
1880;DHT22;49285;49.002;8.390;2022-07-22T09:50:54;26.70;99.90
1880;DHT22;49285;49.002;8.390;2022-07-22T09:53:24;26.70;99.90
1880;DHT22;49285;49.002;8.390;2022-07-22T09:55:50;26.80;99.90
1880;DHT22;49285;49.002;8.390;2022-07-22T09:58:18;26.80;99.90
1880;DHT22;49285;49.002;8.390;2022-07-22T10:00:44;26.90;99.90
1880;DHT22;49285;49.002;8.390;2022-07-22T10:03:18;27.00;99.90
1880;DHT22;49285;49.002;8.390;2022-07-22T10:05:46;27.00;99.90
1880;DHT22;49285;49.002;8.390;2022-07-22T10:08:12;27.10;99.90
1880;DHT22;49285;49.002;8.390;2022-07-22T10:10:40;27.20;99.90
1880;DHT22;49285;49.002;8.390;2022-07-22T10:13:06;27.30;99.90
1880;DHT22;49285;49.002;8.390;2022-07-22T10:15:34;27.30;99.90
1880;DHT22;49285;49.002;8.390;2022-07-22T10:18:08;27.40;99.90
1880;DHT22;49285;49.002;8.390;2022-07-22T10:20:35;27.50;99.90
1880;DHT22;49285;49.002;8.390;2022-07-22T10:23:08;27.50;99.90
1880;DHT22;49285;49.002;8.390;2022-07-22T10:25:57;27.60;99.90
1880;DHT22;49285;49.002;8.390;2022-07-22T10:28:28;27.70;99.90
1880;DHT22;49285;49.002;8.390;2022-07-22T10:31:21;27.80;99.90
1880;DHT22;49285;49.002;8.390;2022-07-22T10:33:54;27.80;99.90
1880;DHT22;49285;49.002;8.390;2022-07-22T10:36:49;27.90;99.90
1880;DHT22;49285;49.002;8.390;2022-07-22T10:39:15;28.00;99.90
1880;DHT22;49285;49.002;8.390;2022-07-22T10:41:44;28.00;99.90
1880;DHT22;49285;49.002;8.390;2022-07-22T10:44:10;28.00;99.90
1880;DHT22;49285;49.002;8.390;2022-07-22T10:46:55;28.10;99.90
1880;DHT22;49285;49.002;8.390;2022-07-22T10:49:26;28.20;99.90
1880;DHT22;49285;49.002;8.390;2022-07-22T10:54:33;28.30;99.90
1880;DHT22;49285;49.002;8.390;2022-07-22T10:57:02;28.40;99.90
1880;DHT22;49285;49.002;8.390;2022-07-22T10:59:28;28.50;99.90
1880;DHT22;49285;49.002;8.390;2022-07-22T11:01:53;28.50;99.90
1880;DHT22;49285;49.002;8.390;2022-07-22T11:04:25;28.60;99.90
1880;DHT22;49285;49.002;8.390;2022-07-22T11:06:53;28.70;99.90
1880;DHT22;49285;49.002;8.390;2022-07-22T11:09:21;28.80;99.90
1880;DHT22;49285;49.002;8.390;2022-07-22T11:11:54;28.80;99.90
1880;DHT22;49285;49.002;8.390;2022-07-22T11:14:31;28.90;99.90
1880;DHT22;49285;49.002;8.390;2022-07-22T11:17:08;29.00;99.90
1880;DHT22;49285;49.002;8.390;2022-07-22T11:19:35;29.10;99.90
1880;DHT22;49285;49.002;8.390;2022-07-22T11:22:10;29.20;99.90
1880;DHT22;49285;49.002;8.390;2022-07-22T11:24:38;29.30;99.90
1880;DHT22;49285;49.002;8.390;2022-07-22T11:27:09;29.30;99.90
1880;DHT22;49285;49.002;8.390;2022-07-22T11:29:37;29.40;99.90
1880;DHT22;49285;49.002;8.390;2022-07-22T11:32:07;29.50;99.90
1880;DHT22;49285;49.002;8.390;2022-07-22T11:34:35;29.60;99.90
1880;DHT22;49285;49.002;8.390;2022-07-22T11:37:01;29.70;99.90
1880;DHT22;49285;49.002;8.390;2022-07-22T11:39:28;29.70;99.90
1880;DHT22;49285;49.002;8.390;2022-07-22T11:41:56;29.80;99.90
1880;DHT22;49285;49.002;8.390;2022-07-22T11:44:24;29.80;99.90
1880;DHT22;49285;49.002;8.390;2022-07-22T11:46:51;30.00;99.90
1880;DHT22;49285;49.002;8.390;2022-07-22T11:49:19;30.10;99.90
1880;DHT22;49285;49.002;8.390;2022-07-22T11:51:45;30.30;99.20
1880;DHT22;49285;49.002;8.390;2022-07-22T11:54:10;30.30;98.80
1880;DHT22;49285;49.002;8.390;2022-07-22T11:56:36;30.40;98.70
1880;DHT22;49285;49.002;8.390;2022-07-22T11:59:03;30.60;98.70
1880;DHT22;49285;49.002;8.390;2022-07-22T12:01:34;30.70;98.10
1880;DHT22;49285;49.002;8.390;2022-07-22T12:04:05;31.00;97.80
1880;DHT22;49285;49.002;8.390;2022-07-22T12:06:33;31.20;97.40
1880;DHT22;49285;49.002;8.390;2022-07-22T12:09:07;31.40;96.70
1880;DHT22;49285;49.002;8.390;2022-07-22T12:11:34;31.60;95.60
1880;DHT22;49285;49.002;8.390;2022-07-22T12:14:12;31.90;95.30
1880;DHT22;49285;49.002;8.390;2022-07-22T12:16:39;32.40;94.00
1880;DHT22;49285;49.002;8.390;2022-07-22T12:19:12;32.80;93.40
1880;DHT22;49285;49.002;8.390;2022-07-22T12:21:53;33.20;93.10
1880;DHT22;49285;49.002;8.390;2022-07-22T12:24:40;33.50;92.10
1880;DHT22;49285;49.002;8.390;2022-07-22T12:27:25;33.90;91.30
1880;DHT22;49285;49.002;8.390;2022-07-22T12:29:50;34.10;90.50
1880;DHT22;49285;49.002;8.390;2022-07-22T12:32:27;34.20;89.70
1880;DHT22;49285;49.002;8.390;2022-07-22T12:42:41;34.70;82.50
1880;DHT22;49285;49.002;8.390;2022-07-22T12:45:16;35.00;82.00
1880;DHT22;49285;49.002;8.390;2022-07-22T12:47:56;35.30;80.00
1880;DHT22;49285;49.002;8.390;2022-07-22T12:50:40;35.50;78.10
1880;DHT22;49285;49.002;8.390;2022-07-22T12:53:14;35.70;76.70
1880;DHT22;49285;49.002;8.390;2022-07-22T12:55:46;35.80;75.40
1880;DHT22;49285;49.002;8.390;2022-07-22T12:58:13;36.00;73.70
1880;DHT22;49285;49.002;8.390;2022-07-22T13:00:42;36.10;71.30
1880;DHT22;49285;49.002;8.390;2022-07-22T13:03:08;36.40;70.70
1880;DHT22;49285;49.002;8.390;2022-07-22T13:05:34;36.40;70.10
1880;DHT22;49285;49.002;8.390;2022-07-22T13:08:00;36.50;69.30
1880;DHT22;49285;49.002;8.390;2022-07-22T13:10:27;36.10;68.40
1880;DHT22;49285;49.002;8.390;2022-07-22T13:12:53;36.30;68.80
1880;DHT22;49285;49.002;8.390;2022-07-22T13:15:19;36.10;67.30
1880;DHT22;49285;49.002;8.390;2022-07-22T13:17:46;36.10;67.90
1880;DHT22;49285;49.002;8.390;2022-07-22T13:20:13;36.20;67.90
1880;DHT22;49285;49.002;8.390;2022-07-22T13:22:39;36.40;66.80
1880;DHT22;49285;49.002;8.390;2022-07-22T13:25:05;36.60;66.40
1880;DHT22;49285;49.002;8.390;2022-07-22T13:27:31;36.70;66.20
1880;DHT22;49285;49.002;8.390;2022-07-22T13:29:57;36.80;65.10
1880;DHT22;49285;49.002;8.390;2022-07-22T13:32:22;36.90;64.20
1880;DHT22;49285;49.002;8.390;2022-07-22T13:34:48;37.10;64.10
1880;DHT22;49285;49.002;8.390;2022-07-22T13:37:14;37.20;62.90
1880;DHT22;49285;49.002;8.390;2022-07-22T13:39:39;37.10;62.10
1880;DHT22;49285;49.002;8.390;2022-07-22T13:42:11;37.10;61.50
1880;DHT22;49285;49.002;8.390;2022-07-22T13:44:37;37.40;60.30
1880;DHT22;49285;49.002;8.390;2022-07-22T13:47:03;37.70;59.90
1880;DHT22;49285;49.002;8.390;2022-07-22T13:49:29;37.90;59.40
1880;DHT22;49285;49.002;8.390;2022-07-22T13:51:54;38.20;59.30
1880;DHT22;49285;49.002;8.390;2022-07-22T13:54:20;38.60;58.90
1880;DHT22;49285;49.002;8.390;2022-07-22T13:56:46;38.70;57.30
1880;DHT22;49285;49.002;8.390;2022-07-22T13:59:15;38.80;57.00
1880;DHT22;49285;49.002;8.390;2022-07-22T14:01:41;39.00;56.60
1880;DHT22;49285;49.002;8.390;2022-07-22T14:04:07;39.10;56.30
1880;DHT22;49285;49.002;8.390;2022-07-22T14:06:33;39.30;55.50
1880;DHT22;49285;49.002;8.390;2022-07-22T14:08:59;39.40;54.50
1880;DHT22;49285;49.002;8.390;2022-07-22T14:11:25;39.20;54.00
1880;DHT22;49285;49.002;8.390;2022-07-22T14:13:51;39.10;53.90
1880;DHT22;49285;49.002;8.390;2022-07-22T14:16:16;39.20;54.00
1880;DHT22;49285;49.002;8.390;2022-07-22T14:19:10;38.90;53.40
1880;DHT22;49285;49.002;8.390;2022-07-22T14:21:37;39.10;54.20
1880;DHT22;49285;49.002;8.390;2022-07-22T14:24:04;39.40;53.50
1880;DHT22;49285;49.002;8.390;2022-07-22T14:26:30;39.40;52.80
1880;DHT22;49285;49.002;8.390;2022-07-22T14:28:56;39.70;52.80
1880;DHT22;49285;49.002;8.390;2022-07-22T14:31:22;39.90;52.40
1880;DHT22;49285;49.002;8.390;2022-07-22T14:33:48;40.30;51.40
1880;DHT22;49285;49.002;8.390;2022-07-22T14:36:14;40.60;51.10
1880;DHT22;49285;49.002;8.390;2022-07-22T14:38:40;40.90;50.50
1880;DHT22;49285;49.002;8.390;2022-07-22T14:41:06;41.30;49.70
1880;DHT22;49285;49.002;8.390;2022-07-22T14:43:33;41.10;49.50
1880;DHT22;49285;49.002;8.390;2022-07-22T14:45:59;40.90;48.30
1880;DHT22;49285;49.002;8.390;2022-07-22T14:48:25;40.40;49.00
1880;DHT22;49285;49.002;8.390;2022-07-22T14:50:50;40.70;49.30
1880;DHT22;49285;49.002;8.390;2022-07-22T14:53:16;40.30;49.00
1880;DHT22;49285;49.002;8.390;2022-07-22T14:55:42;40.20;49.10
1880;DHT22;49285;49.002;8.390;2022-07-22T14:58:08;40.10;49.10
1880;DHT22;49285;49.002;8.390;2022-07-22T15:00:34;39.90;48.70
1880;DHT22;49285;49.002;8.390;2022-07-22T15:02:59;39.70;48.80
1880;DHT22;49285;49.002;8.390;2022-07-22T15:05:25;39.30;48.90
1880;DHT22;49285;49.002;8.390;2022-07-22T15:07:50;38.90;49.70
1880;DHT22;49285;49.002;8.390;2022-07-22T15:10:16;38.90;49.60
1880;DHT22;49285;49.002;8.390;2022-07-22T15:12:42;39.10;49.70
1880;DHT22;49285;49.002;8.390;2022-07-22T15:15:07;39.30;49.70
1880;DHT22;49285;49.002;8.390;2022-07-22T15:17:35;39.50;49.60
1880;DHT22;49285;49.002;8.390;2022-07-22T15:20:02;39.80;49.00
1880;DHT22;49285;49.002;8.390;2022-07-22T15:22:28;40.10;48.20
1880;DHT22;49285;49.002;8.390;2022-07-22T15:24:55;40.20;48.20
1880;DHT22;49285;49.002;8.390;2022-07-22T15:27:20;40.20;47.70
1880;DHT22;49285;49.002;8.390;2022-07-22T15:29:46;40.40;47.60
1880;DHT22;49285;49.002;8.390;2022-07-22T15:32:14;40.30;47.10
1880;DHT22;49285;49.002;8.390;2022-07-22T15:34:40;40.70;47.00
1880;DHT22;49285;49.002;8.390;2022-07-22T15:37:05;41.00;46.40
1880;DHT22;49285;49.002;8.390;2022-07-22T15:39:31;41.70;46.00
1880;DHT22;49285;49.002;8.390;2022-07-22T15:41:57;42.50;45.90
1880;DHT22;49285;49.002;8.390;2022-07-22T15:44:22;42.70;44.70
1880;DHT22;49285;49.002;8.390;2022-07-22T15:46:48;42.00;44.40
1880;DHT22;49285;49.002;8.390;2022-07-22T15:49:14;41.30;45.00
1880;DHT22;49285;49.002;8.390;2022-07-22T15:51:40;40.60;45.70
1880;DHT22;49285;49.002;8.390;2022-07-22T15:54:05;40.20;46.10
1880;DHT22;49285;49.002;8.390;2022-07-22T15:56:31;40.20;46.30